createdAt,value
2019-02-24T00:01:33.696Z,102748.19
2019-02-24T00:06:40.719Z,102750.66
2019-02-24T00:11:47.775Z,102753.39
2019-02-24T00:16:54.821Z,102745.58
2019-02-24T00:22:02.969Z,102743.28
2019-02-24T00:27:09.954Z,102735.34
2019-02-24T00:32:16.936Z,102748.52
2019-02-24T00:37:23.925Z,102745.16
2019-02-24T00:42:30.978Z,102736.27
2019-02-24T00:47:37.975Z,102731.78
2019-02-24T00:52:44.990Z,102734.34
2019-02-24T00:57:52.179Z,102732.02
2019-02-24T01:02:59.187Z,102722.92
2019-02-24T01:08:06.363Z,102722.47
2019-02-24T01:13:13.433Z,102720.39
2019-02-24T01:18:20.506Z,102715.41
2019-02-24T01:23:27.582Z,102715.64
2019-02-24T01:28:34.683Z,102705.48
2019-02-24T01:33:41.760Z,102702.81
2019-02-24T01:38:48.751Z,102695.19
2019-02-24T01:43:56.183Z,102691.45
2019-02-24T01:49:03.252Z,102697.34
2019-02-24T01:54:10.292Z,102691.98
2019-02-24T01:59:17.285Z,102691.13
2019-02-24T02:04:24.258Z,102687.59
2019-02-24T02:09:31.272Z,102687.55
2019-02-24T02:14:38.239Z,102692.11
2019-02-24T02:19:45.248Z,102683.22
2019-02-24T02:24:52.242Z,102680.05
2019-02-24T02:29:59.331Z,102689.55
2019-02-24T02:35:07.393Z,102685.75
2019-02-24T02:40:14.463Z,102692.55
2019-02-24T02:45:21.431Z,102692.21
2019-02-24T02:50:28.505Z,102683.72
2019-02-24T02:55:35.534Z,102685.40
2019-02-24T03:00:43.721Z,102693.15
2019-02-24T03:06:16.166Z,102686.22
2019-02-24T03:11:23.248Z,102695.66
2019-02-24T03:16:30.398Z,102700.14
2019-02-24T03:21:37.398Z,102715.88
2019-02-24T03:26:44.484Z,102703.64
2019-02-24T03:31:51.459Z,102706.53
2019-02-24T03:36:58.531Z,102710.56
2019-02-24T03:42:05.584Z,102720.12
2019-02-24T03:47:12.558Z,102715.11
2019-02-24T03:52:19.709Z,102703.30
2019-02-24T03:57:27.465Z,102694.92
2019-02-24T04:02:34.459Z,102690.30
2019-02-24T04:07:41.529Z,102683.20
2019-02-24T04:12:48.656Z,102692.80
2019-02-24T04:17:55.902Z,102687.02
2019-02-24T04:23:02.931Z,102679.10
2019-02-24T04:28:11.227Z,102669.28
2019-02-24T04:33:18.243Z,102673.38
2019-02-24T04:38:25.237Z,102668.16
2019-02-24T04:43:32.272Z,102663.94
2019-02-24T04:48:39.252Z,102659.11
2019-02-24T04:53:46.660Z,102645.20
2019-02-24T04:58:53.729Z,102647.63
2019-02-24T05:04:00.794Z,102636.03
2019-02-24T05:09:07.792Z,102637.08
2019-02-24T05:14:14.898Z,102626.20
2019-02-24T05:19:21.867Z,102625.35
2019-02-24T05:24:28.955Z,102632.21
2019-02-24T05:29:44.694Z,102635.76
2019-02-24T05:34:44.644Z,102629.89
2019-02-24T05:39:51.628Z,102630.94
2019-02-24T05:44:58.653Z,102621.53
2019-02-24T05:50:08.388Z,102606.42
2019-02-24T05:55:15.649Z,102619.97
2019-02-24T06:00:25.242Z,102620.07
2019-02-24T06:05:32.285Z,102615.89
2019-02-24T06:10:39.362Z,102606.50
2019-02-24T06:15:46.408Z,102619.32
2019-02-24T06:20:54.007Z,102604.58
2019-02-24T06:26:01.060Z,102625.45
2019-02-24T06:31:08.836Z,102618.28
2019-02-24T06:36:15.841Z,102632.47
2019-02-24T06:41:23.406Z,102641.16
2019-02-24T06:46:30.607Z,102643.95
2019-02-24T06:51:37.680Z,102646.13
2019-02-24T06:56:44.853Z,102652.44
2019-02-24T07:01:51.978Z,102655.73
2019-02-24T07:06:59.353Z,102639.65
2019-02-24T07:12:06.561Z,102634.17
2019-02-24T07:17:13.567Z,102650.67
2019-02-24T07:22:20.563Z,102653.90
2019-02-24T07:27:27.546Z,102646.19
2019-02-24T07:32:34.786Z,102654.84
2019-02-24T07:37:41.772Z,102650.34
2019-02-24T07:42:48.772Z,102642.57
2019-02-24T07:47:55.871Z,102654.61
2019-02-24T07:53:03.033Z,102655.19
2019-02-24T07:58:11.107Z,102652.98
2019-02-24T08:03:18.126Z,102646.16
2019-02-24T08:08:25.087Z,102638.56
2019-02-24T08:13:32.332Z,102634.50
2019-02-24T08:18:39.412Z,102607.41
2019-02-24T08:23:46.404Z,102613.70
2019-02-24T08:28:53.391Z,102624.70
2019-02-24T08:34:00.453Z,102633.66
2019-02-24T08:39:07.628Z,102630.66
2019-02-24T08:44:14.637Z,102624.80
2019-02-24T08:49:21.706Z,102635.12
2019-02-24T08:54:28.757Z,102655.70
2019-02-24T08:59:35.778Z,102656.72
2019-02-24T09:04:42.830Z,102672.44
2019-02-24T09:09:50.223Z,102670.12
2019-02-24T09:14:58.198Z,102663.48
2019-02-24T09:20:05.656Z,102668.27
2019-02-24T09:25:13.657Z,102669.89
2019-02-24T09:30:20.841Z,102669.89
2019-02-24T09:35:27.923Z,102684.55
2019-02-24T09:40:34.954Z,102691.66
2019-02-24T09:45:41.960Z,102689.00
2019-02-24T09:50:48.953Z,102691.95
2019-02-24T09:55:56.016Z,102689.81
2019-02-24T10:01:10.283Z,102678.17
2019-02-24T10:06:11.833Z,102670.80
2019-02-24T10:11:19.116Z,102666.52
2019-02-24T10:16:27.196Z,102673.68
2019-02-24T10:21:34.216Z,102653.19
2019-02-24T10:26:41.279Z,102653.94
2019-02-24T10:31:48.515Z,102644.65
2019-02-24T10:36:55.863Z,102651.09
2019-02-24T10:42:03.008Z,102656.61
2019-02-24T10:47:10.123Z,102648.78
2019-02-24T10:52:17.202Z,102648.70
2019-02-24T10:57:24.419Z,102627.94
2019-02-24T11:02:31.776Z,102618.28
2019-02-24T11:07:38.908Z,102627.03
2019-02-24T11:12:45.880Z,102652.58
2019-02-24T11:17:52.928Z,102662.91
2019-02-24T11:22:59.931Z,102649.63
2019-02-24T11:28:06.967Z,102634.89
2019-02-24T11:33:13.974Z,102629.95
2019-02-24T11:38:22.035Z,102633.37
2019-02-24T11:43:30.242Z,102634.53
2019-02-24T11:48:37.238Z,102648.59
2019-02-24T11:53:44.285Z,102653.33
2019-02-24T11:58:51.330Z,102653.42
2019-02-24T12:03:58.821Z,102632.64
2019-02-24T12:09:06.127Z,102630.86
2019-02-24T12:14:13.203Z,102642.40
2019-02-24T12:19:20.283Z,102643.53
2019-02-24T12:24:27.262Z,102632.00
2019-02-24T12:29:34.277Z,102628.97
2019-02-24T12:34:41.279Z,102630.06
2019-02-24T12:39:48.260Z,102604.13
2019-02-24T12:44:55.323Z,102595.47
2019-02-24T12:50:03.875Z,102602.53
2019-02-24T12:55:11.000Z,102601.68
2019-02-24T13:00:19.208Z,102600.68
2019-02-24T13:05:26.438Z,102605.53
2019-02-24T13:10:33.655Z,102608.95
2019-02-24T13:15:40.739Z,102614.73
2019-02-24T13:20:50.664Z,102606.83
2019-02-24T13:25:57.825Z,102616.11
2019-02-24T13:31:04.958Z,102609.07
2019-02-24T13:36:12.231Z,102600.81
2019-02-24T13:41:19.344Z,102607.55
2019-02-24T13:46:26.541Z,102596.59
2019-02-24T13:51:33.626Z,102585.66
2019-02-24T13:56:40.801Z,102589.92
2019-02-24T14:01:47.901Z,102585.10
2019-02-24T14:06:54.927Z,102588.91
2019-02-24T14:12:02.153Z,102589.62
2019-02-24T14:17:09.188Z,102587.13
2019-02-24T14:22:16.201Z,102577.53
2019-02-24T14:27:23.290Z,102574.96
2019-02-24T14:32:33.075Z,102566.80
2019-02-24T14:37:39.410Z,102561.91
2019-02-24T14:42:46.556Z,102556.49
2019-02-24T14:47:53.847Z,102578.74
2019-02-24T14:53:01.291Z,102572.38
2019-02-24T14:58:08.609Z,102579.47
2019-02-24T15:03:15.903Z,102561.52
2019-02-24T15:08:23.243Z,102560.14
2019-02-24T15:13:30.608Z,102561.30
2019-02-24T15:18:37.997Z,102553.88
2019-02-24T15:23:45.386Z,102553.88
2019-02-24T15:28:52.976Z,102540.57
2019-02-24T15:34:00.433Z,102540.57
2019-02-24T15:39:08.219Z,102532.44
2019-02-24T15:44:15.714Z,102527.30
2019-02-24T15:49:23.047Z,102541.36
2019-02-24T15:54:30.847Z,102547.53
2019-02-24T15:59:38.205Z,102550.96
2019-02-24T16:04:45.509Z,102553.48
2019-02-24T16:09:52.911Z,102553.48
2019-02-24T16:15:00.832Z,102545.58
2019-02-24T16:20:12.789Z,102545.58
2019-02-24T16:25:19.809Z,102551.34
2019-02-24T16:30:27.165Z,102557.74
2019-02-24T16:35:35.971Z,102557.79
2019-02-24T16:40:43.033Z,102555.02
2019-02-24T16:45:51.531Z,102550.50
2019-02-24T16:51:07.504Z,102558.05
2019-02-24T16:56:14.896Z,102550.03
2019-02-24T17:01:22.085Z,102545.70
2019-02-24T17:06:29.136Z,102561.06
2019-02-24T17:11:36.164Z,102560.84
2019-02-24T17:16:43.222Z,102563.62
2019-02-24T17:21:50.275Z,102573.52
2019-02-24T17:26:57.545Z,102581.57
2019-02-24T17:32:04.579Z,102579.98
2019-02-24T17:37:19.685Z,102583.63
2019-02-24T17:42:20.318Z,102594.44
2019-02-24T17:47:27.521Z,102598.75
2019-02-24T17:52:34.828Z,102600.05
2019-02-24T17:57:42.908Z,102607.63
2019-02-24T18:02:49.900Z,102602.24
2019-02-24T18:07:57.962Z,102608.25
2019-02-24T18:13:05.324Z,102605.75
2019-02-24T18:18:12.760Z,102602.95
2019-02-24T18:23:19.780Z,102586.73
2019-02-24T18:28:27.017Z,102585.15
2019-02-24T18:33:35.316Z,102597.48
2019-02-24T18:38:43.905Z,102598.52
2019-02-24T18:43:50.979Z,102592.57
2019-02-24T18:48:58.067Z,102587.80
2019-02-24T18:54:05.136Z,102581.80
2019-02-24T18:59:12.191Z,102578.64
2019-02-24T19:04:19.178Z,102582.09
2019-02-24T19:09:26.691Z,102574.44
2019-02-24T19:14:33.843Z,102578.08
2019-02-24T19:19:40.984Z,102574.98
2019-02-24T19:24:48.079Z,102577.66
2019-02-24T19:29:55.074Z,102589.55
2019-02-24T19:35:02.117Z,102584.53
2019-02-24T19:40:11.131Z,102582.27
2019-02-24T19:45:18.502Z,102577.55
2019-02-24T19:50:25.640Z,102574.68
2019-02-24T19:55:32.744Z,102588.03
2019-02-24T20:00:39.835Z,102604.58
2019-02-24T20:05:47.159Z,102598.24
2019-02-24T20:10:54.620Z,102598.99
2019-02-24T20:16:01.699Z,102591.01
2019-02-24T20:21:08.915Z,102590.91
2019-02-24T20:26:16.854Z,102592.76
2019-02-24T20:31:25.010Z,102603.86
2019-02-24T20:36:32.065Z,102597.55
2019-02-24T20:41:39.134Z,102605.43
2019-02-24T20:46:46.146Z,102605.61
2019-02-24T20:51:53.192Z,102594.77
2019-02-24T20:57:00.203Z,102588.02
2019-02-24T21:02:07.367Z,102581.92
2019-02-24T21:07:14.484Z,102576.31
2019-02-24T21:12:21.573Z,102585.13
2019-02-24T21:17:28.556Z,102590.89
2019-02-24T21:22:35.760Z,102601.25
2019-02-24T21:27:42.804Z,102611.94
2019-02-24T21:32:49.998Z,102607.33
2019-02-24T21:37:57.082Z,102608.89
2019-02-24T21:43:04.283Z,102603.16
2019-02-24T21:48:11.572Z,102589.28
2019-02-24T21:53:18.653Z,102596.42
2019-02-24T21:58:25.815Z,102600.88
2019-02-24T22:03:32.811Z,102601.20
2019-02-24T22:08:39.846Z,102600.67
2019-02-24T22:13:47.074Z,102606.61
2019-02-24T22:18:54.068Z,102603.04
2019-02-24T22:24:01.075Z,102600.25
2019-02-24T22:29:08.249Z,102607.19
2019-02-24T22:34:16.414Z,102609.14
2019-02-24T22:39:23.498Z,102610.62
2019-02-24T22:44:30.599Z,102622.66
2019-02-24T22:49:37.633Z,102626.31
2019-02-24T22:54:44.663Z,102628.69
2019-02-24T22:59:51.830Z,102623.25
2019-02-24T23:04:58.960Z,102632.42
2019-02-24T23:10:07.312Z,102634.80
2019-02-24T23:15:14.403Z,102621.17
2019-02-24T23:20:21.430Z,102623.66
2019-02-24T23:25:30.226Z,102618.19
2019-02-24T23:30:37.619Z,102617.31
2019-02-24T23:35:45.857Z,102608.39
2019-02-24T23:40:52.994Z,102607.19
2019-02-24T23:46:00.017Z,102609.32
2019-02-24T23:51:07.075Z,102611.23
2019-02-24T23:56:14.205Z,102609.14
